Time;durP1;ratioP1;P1;durP2;ratioP2;P2;SDS_P1;SDS_P2;PMS_P1;PMS_P2;Temp;Humidity;BMP_temperature;BMP_pressure;BME280_temperature;BME280_humidity;BME280_pressure;Samples;Min_cycle;Max_cycle;Signal;HPM_P1;HPM_P2
2023/12/25 00:01:37;;;;;;;14.63;3.53;;;;;;;;;;4987165;28;20054;-82
2023/12/25 00:04:04;;;;;;;13.25;2.20;;;;;;;;;;4988402;28;20038;-82
2023/12/25 00:06:30;;;;;;;17.00;2.58;;;;;;;;;;4987067;28;20033;-82
2023/12/25 00:08:57;;;;;;;21.17;3.25;;;;;;;;;;4973967;28;20037;-82
2023/12/25 00:11:23;;;;;;;21.67;2.40;;;;;;;;;;4986747;28;20041;-82
2023/12/25 00:13:52;;;;;;;13.05;2.33;;;;;;;;;;4954646;28;20037;-82
2023/12/25 00:16:18;;;;;;;13.38;2.70;;;;;;;;;;4985193;28;20046;-81
2023/12/25 00:18:45;;;;;;;9.18;1.90;;;;;;;;;;4971785;28;20416;-82
2023/12/25 00:21:11;;;;;;;13.50;2.55;;;;;;;;;;4987152;28;20199;-82
2023/12/25 00:23:37;;;;;;;10.27;1.90;;;;;;;;;;4988862;28;20042;-82
2023/12/25 00:26:03;;;;;;;14.85;2.85;;;;;;;;;;4985017;28;20073;-82
2023/12/25 00:28:29;;;;;;;20.75;2.45;;;;;;;;;;4970718;28;20112;-81
2023/12/25 00:30:55;;;;;;;14.27;3.15;;;;;;;;;;4972502;28;20464;-81
2023/12/25 00:33:21;;;;;;;10.68;2.75;;;;;;;;;;4968737;28;20111;-81
2023/12/25 00:35:47;;;;;;;15.50;3.10;;;;;;;;;;4970727;28;20049;-82
2023/12/25 00:38:13;;;;;;;15.30;2.10;;;;;;;;;;4972255;28;20053;-82
2023/12/25 00:40:39;;;;;;;9.27;1.92;;;;;;;;;;4973149;28;20438;-82
2023/12/25 00:43:05;;;;;;;8.85;2.00;;;;;;;;;;4973506;28;20505;-82
2023/12/25 00:45:31;;;;;;;10.07;2.30;;;;;;;;;;4976064;28;20112;-81
2023/12/25 00:47:57;;;;;;;12.90;3.45;;;;;;;;;;4987596;28;20056;-81
2023/12/25 00:50:23;;;;;;;17.38;2.38;;;;;;;;;;4969393;28;20127;-82
2023/12/25 00:52:49;;;;;;;14.68;3.10;;;;;;;;;;4973240;28;20121;-81
2023/12/25 00:55:15;;;;;;;10.52;2.10;;;;;;;;;;4970178;28;20038;-82
2023/12/25 00:57:41;;;;;;;14.68;2.63;;;;;;;;;;4977638;28;20045;-82
2023/12/25 01:00:08;;;;;;;14.50;2.50;;;;;;;;;;4972783;28;20052;-81
2023/12/25 01:02:34;;;;;;;16.90;2.65;;;;;;;;;;4987969;28;20124;-82
2023/12/25 01:05:00;;;;;;;19.25;2.53;;;;;;;;;;4970776;28;20787;-83
2023/12/25 01:07:26;;;;;;;13.57;3.72;;;;;;;;;;4987329;28;20037;-83
2023/12/25 01:09:52;;;;;;;15.95;2.92;;;;;;;;;;4975289;28;20477;-84
2023/12/25 01:12:18;;;;;;;11.15;2.33;;;;;;;;;;4972513;28;20211;-85
2023/12/25 01:14:44;;;;;;;13.38;2.13;;;;;;;;;;4987500;28;20052;-83
2023/12/25 01:17:11;;;;;;;10.63;2.08;;;;;;;;;;4988356;28;20046;-83
2023/12/25 01:19:37;;;;;;;14.00;2.92;;;;;;;;;;4969282;28;20053;-83
2023/12/25 01:22:03;;;;;;;13.57;2.47;;;;;;;;;;4971626;28;20049;-84
2023/12/25 01:24:30;;;;;;;10.35;2.50;;;;;;;;;;4984114;28;20112;-82
2023/12/25 01:26:56;;;;;;;11.82;2.30;;;;;;;;;;4985184;28;20045;-84
2023/12/25 01:29:22;;;;;;;13.23;2.85;;;;;;;;;;4984537;28;20042;-83
2023/12/25 01:31:48;;;;;;;10.43;2.00;;;;;;;;;;4969552;28;20413;-83
2023/12/25 01:34:14;;;;;;;14.85;2.03;;;;;;;;;;4968214;28;20142;-83
2023/12/25 01:36:40;;;;;;;12.93;3.30;;;;;;;;;;4974571;28;20052;-83
2023/12/25 01:39:06;;;;;;;8.85;1.80;;;;;;;;;;4983592;28;20131;-83
2023/12/25 01:41:32;;;;;;;8.50;1.70;;;;;;;;;;4987465;28;20111;-83
2023/12/25 01:43:58;;;;;;;12.45;1.65;;;;;;;;;;4984128;28;20038;-83
2023/12/25 01:46:25;;;;;;;13.30;1.88;;;;;;;;;;4984589;28;20084;-82
2023/12/25 01:48:51;;;;;;;8.23;1.50;;;;;;;;;;4973656;28;20167;-82
2023/12/25 01:51:18;;;;;;;12.52;2.20;;;;;;;;;;4970841;28;20048;-82
2023/12/25 01:53:44;;;;;;;13.77;2.30;;;;;;;;;;4973857;28;20119;-82
2023/12/25 01:56:10;;;;;;;17.35;2.70;;;;;;;;;;4990883;28;20050;-81
2023/12/25 01:58:37;;;;;;;12.38;2.00;;;;;;;;;;4968564;28;20046;-81
2023/12/25 02:01:03;;;;;;;9.55;2.03;;;;;;;;;;4970691;28;20038;-82
2023/12/25 02:03:29;;;;;;;12.10;1.90;;;;;;;;;;4972590;28;20081;-82
2023/12/25 02:05:55;;;;;;;10.48;1.77;;;;;;;;;;4983730;28;20038;-82
2023/12/25 02:08:21;;;;;;;12.27;2.58;;;;;;;;;;4970161;28;20076;-82
2023/12/25 02:10:47;;;;;;;11.93;2.00;;;;;;;;;;4987420;28;20406;-82
2023/12/25 02:13:13;;;;;;;11.80;2.22;;;;;;;;;;4956786;28;20048;-82
2023/12/25 02:15:40;;;;;;;16.60;2.17;;;;;;;;;;4956687;28;20041;-82
2023/12/25 02:18:06;;;;;;;6.78;1.90;;;;;;;;;;4987218;28;20046;-82
2023/12/25 02:20:33;;;;;;;14.63;2.40;;;;;;;;;;4970357;28;20046;-83
2023/12/25 02:23:00;;;;;;;8.55;1.83;;;;;;;;;;4974034;28;20049;-83
2023/12/25 02:25:33;;;;;;;12.60;2.47;;;;;;;;;;4968195;28;20687;-82
2023/12/25 02:28:00;;;;;;;13.83;2.73;;;;;;;;;;4974862;28;20038;-82
2023/12/25 02:30:26;;;;;;;14.68;2.10;;;;;;;;;;4953874;28;20284;-84
2023/12/25 02:32:52;;;;;;;9.98;2.08;;;;;;;;;;4967013;28;20472;-84
2023/12/25 02:35:18;;;;;;;19.38;3.42;;;;;;;;;;4971103;28;20045;-84
2023/12/25 02:37:44;;;;;;;18.00;2.25;;;;;;;;;;4970617;28;20045;-84
2023/12/25 02:40:11;;;;;;;9.25;2.72;;;;;;;;;;4976347;28;20560;-83
2023/12/25 02:42:37;;;;;;;15.27;2.28;;;;;;;;;;4955893;28;20508;-84
2023/12/25 02:45:03;;;;;;;8.23;1.65;;;;;;;;;;4988157;28;20097;-84
2023/12/25 02:47:29;;;;;;;10.32;2.50;;;;;;;;;;4985597;28;20034;-83
2023/12/25 02:49:55;;;;;;;22.52;3.50;;;;;;;;;;4970476;28;20046;-83
2023/12/25 02:52:21;;;;;;;10.38;2.83;;;;;;;;;;4973353;28;20487;-83
2023/12/25 02:54:47;;;;;;;18.50;3.08;;;;;;;;;;4990382;28;20038;-84
2023/12/25 02:57:13;;;;;;;17.50;2.72;;;;;;;;;;4969171;28;20125;-84
2023/12/25 02:59:39;;;;;;;15.00;1.98;;;;;;;;;;4977279;28;20048;-84
2023/12/25 03:02:05;;;;;;;17.27;3.70;;;;;;;;;;4991810;28;20048;-82
2023/12/25 03:04:31;;;;;;;16.40;2.97;;;;;;;;;;4970964;28;20084;-81
2023/12/25 03:06:57;;;;;;;18.02;3.33;;;;;;;;;;4973849;28;20077;-80
2023/12/25 03:09:23;;;;;;;14.00;2.08;;;;;;;;;;4968334;28;20042;-84
2023/12/25 03:11:49;;;;;;;9.95;2.65;;;;;;;;;;4958719;28;20057;-82
2023/12/25 03:14:15;;;;;;;12.05;1.98;;;;;;;;;;4988210;28;20041;-83
2023/12/25 03:16:41;;;;;;;18.83;2.47;;;;;;;;;;4975247;28;20046;-82
2023/12/25 03:19:07;;;;;;;13.50;3.03;;;;;;;;;;4971104;28;20038;-84
2023/12/25 03:21:33;;;;;;;10.27;2.17;;;;;;;;;;4986683;28;20038;-84
2023/12/25 03:24:00;;;;;;;13.85;2.35;;;;;;;;;;4976966;28;20065;-84
2023/12/25 03:26:26;;;;;;;14.80;2.25;;;;;;;;;;4956548;28;20037;-84
2023/12/25 03:28:52;;;;;;;17.92;2.47;;;;;;;;;;4990061;28;20054;-83
2023/12/25 03:31:18;;;;;;;18.33;4.22;;;;;;;;;;4960748;28;20050;-84
2023/12/25 03:33:44;;;;;;;13.82;2.58;;;;;;;;;;4975397;28;20112;-85
2023/12/25 03:36:11;;;;;;;18.83;3.47;;;;;;;;;;4972095;28;20037;-82
2023/12/25 03:38:37;;;;;;;23.33;2.72;;;;;;;;;;4973067;28;20108;-84
2023/12/25 03:41:03;;;;;;;10.75;2.15;;;;;;;;;;4971389;28;20082;-84
2023/12/25 03:43:29;;;;;;;20.13;2.50;;;;;;;;;;4990968;28;20064;-83
2023/12/25 03:45:56;;;;;;;15.18;3.08;;;;;;;;;;4990545;28;20121;-84
2023/12/25 03:48:23;;;;;;;17.67;3.33;;;;;;;;;;4973574;28;20038;-83
2023/12/25 03:50:49;;;;;;;19.15;3.38;;;;;;;;;;4972180;28;20999;-83
2023/12/25 03:53:15;;;;;;;20.83;2.70;;;;;;;;;;4956665;28;20042;-83
2023/12/25 03:55:42;;;;;;;12.93;2.08;;;;;;;;;;4972308;28;20045;-83
2023/12/25 03:58:08;;;;;;;14.43;2.55;;;;;;;;;;4971393;28;20046;-82
2023/12/25 04:00:34;;;;;;;18.90;3.63;;;;;;;;;;4977951;28;20155;-83
2023/12/25 04:03:00;;;;;;;9.32;2.28;;;;;;;;;;4971370;28;20480;-83
2023/12/25 04:05:26;;;;;;;11.07;2.03;;;;;;;;;;4986796;28;20068;-82
2023/12/25 04:07:52;;;;;;;16.77;2.88;;;;;;;;;;4959589;28;20038;-84
2023/12/25 04:10:18;;;;;;;15.10;2.72;;;;;;;;;;4957236;28;20046;-83
2023/12/25 04:12:44;;;;;;;12.13;1.92;;;;;;;;;;4985347;28;20042;-84
2023/12/25 04:15:10;;;;;;;10.73;2.80;;;;;;;;;;4972012;28;20581;-82
2023/12/25 04:17:37;;;;;;;15.07;2.75;;;;;;;;;;4971795;28;20046;-83
2023/12/25 04:20:04;;;;;;;13.23;2.47;;;;;;;;;;4971432;28;20408;-83
2023/12/25 04:22:30;;;;;;;12.38;2.17;;;;;;;;;;4990971;28;20607;-83
2023/12/25 04:24:56;;;;;;;11.27;2.50;;;;;;;;;;4986416;28;20416;-83
2023/12/25 04:27:22;;;;;;;17.73;2.33;;;;;;;;;;4971015;28;20043;-82
2023/12/25 04:29:48;;;;;;;19.15;2.72;;;;;;;;;;4972705;28;20041;-82
2023/12/25 04:32:14;;;;;;;13.57;2.35;;;;;;;;;;4956348;28;20149;-83
2023/12/25 04:34:40;;;;;;;12.52;2.53;;;;;;;;;;4975096;28;20052;-83
2023/12/25 04:37:06;;;;;;;13.02;3.10;;;;;;;;;;4971313;28;20111;-83
2023/12/25 04:39:33;;;;;;;11.90;3.20;;;;;;;;;;4960763;28;20513;-84
2023/12/25 04:42:00;;;;;;;13.80;2.63;;;;;;;;;;4955149;28;20515;-83
2023/12/25 04:44:26;;;;;;;14.00;2.10;;;;;;;;;;4971706;28;20103;-83
2023/12/25 04:46:52;;;;;;;14.57;2.90;;;;;;;;;;4992575;28;20362;-83
2023/12/25 04:49:18;;;;;;;18.15;2.45;;;;;;;;;;4969000;28;20532;-83
2023/12/25 04:51:44;;;;;;;18.67;2.53;;;;;;;;;;4975880;28;20489;-83
2023/12/25 04:54:11;;;;;;;15.60;2.58;;;;;;;;;;4985396;28;20129;-82
2023/12/25 04:56:37;;;;;;;12.80;2.42;;;;;;;;;;4992262;28;20045;-83
2023/12/25 04:59:03;;;;;;;21.98;4.25;;;;;;;;;;4956423;28;20038;-84
2023/12/25 05:01:29;;;;;;;17.48;2.33;;;;;;;;;;4989798;28;20371;-84
2023/12/25 05:03:55;;;;;;;11.90;2.50;;;;;;;;;;4954981;28;20116;-83
2023/12/25 05:06:21;;;;;;;11.18;2.40;;;;;;;;;;4970355;28;20215;-83
2023/12/25 05:08:47;;;;;;;17.23;2.95;;;;;;;;;;4971768;28;20042;-83
2023/12/25 05:11:13;;;;;;;16.38;2.80;;;;;;;;;;4955044;28;20575;-84
2023/12/25 05:13:39;;;;;;;13.63;2.50;;;;;;;;;;4987733;28;20034;-83
2023/12/25 05:16:05;;;;;;;22.83;2.30;;;;;;;;;;4973152;28;20132;-79
2023/12/25 05:18:31;;;;;;;10.98;2.00;;;;;;;;;;4971732;28;20046;-81
2023/12/25 05:20:59;;;;;;;19.15;2.78;;;;;;;;;;4977233;28;20501;-81
2023/12/25 05:23:25;;;;;;;18.38;2.55;;;;;;;;;;4974726;28;20037;-82
2023/12/25 05:25:51;;;;;;;13.75;2.13;;;;;;;;;;4985454;28;20054;-79
2023/12/25 05:28:17;;;;;;;17.08;2.67;;;;;;;;;;4986698;28;20033;-78
2023/12/25 05:30:44;;;;;;;16.25;2.88;;;;;;;;;;4990336;28;20033;-79
2023/12/25 05:33:10;;;;;;;10.73;2.38;;;;;;;;;;4989295;28;20475;-79
2023/12/25 05:35:36;;;;;;;13.73;2.00;;;;;;;;;;4971947;28;20166;-80
2023/12/25 05:38:02;;;;;;;15.25;2.65;;;;;;;;;;4974546;28;20476;-80
2023/12/25 05:40:28;;;;;;;15.00;2.17;;;;;;;;;;4975563;28;20203;-80
2023/12/25 05:42:54;;;;;;;17.77;2.72;;;;;;;;;;4972216;28;20490;-78
2023/12/25 05:45:22;;;;;;;13.43;2.13;;;;;;;;;;4988660;28;20516;-78
2023/12/25 05:47:48;;;;;;;13.60;3.05;;;;;;;;;;4973200;28;20041;-79
2023/12/25 05:50:14;;;;;;;16.23;2.40;;;;;;;;;;4968335;28;20030;-79
2023/12/25 05:52:40;;;;;;;18.15;2.45;;;;;;;;;;4973658;28;20038;-78
2023/12/25 05:55:06;;;;;;;14.27;1.88;;;;;;;;;;4980380;28;20081;-79
2023/12/25 05:57:33;;;;;;;17.00;2.38;;;;;;;;;;4971882;28;20140;-82
2023/12/25 05:59:59;;;;;;;9.40;2.08;;;;;;;;;;4988846;28;20572;-79
2023/12/25 06:02:25;;;;;;;19.88;3.55;;;;;;;;;;4956784;28;20046;-79
2023/12/25 06:04:51;;;;;;;16.20;2.80;;;;;;;;;;4972596;28;20045;-79
2023/12/25 06:07:17;;;;;;;19.40;2.60;;;;;;;;;;4970944;28;20124;-80
2023/12/25 06:09:44;;;;;;;19.52;3.00;;;;;;;;;;4972081;28;20056;-79
2023/12/25 06:12:10;;;;;;;13.43;2.28;;;;;;;;;;4976633;28;20049;-81
2023/12/25 06:14:36;;;;;;;23.65;3.10;;;;;;;;;;4958853;28;20069;-80
2023/12/25 06:17:04;;;;;;;17.80;2.67;;;;;;;;;;4958561;28;20041;-80
2023/12/25 06:19:30;;;;;;;19.15;3.75;;;;;;;;;;4974084;28;20093;-79
2023/12/25 06:21:56;;;;;;;16.55;2.88;;;;;;;;;;4987727;28;20045;-79
2023/12/25 06:24:22;;;;;;;8.95;1.90;;;;;;;;;;4990221;28;20033;-83
2023/12/25 06:26:48;;;;;;;17.40;3.65;;;;;;;;;;4988170;28;20068;-78
2023/12/25 06:29:14;;;;;;;17.30;3.45;;;;;;;;;;4961834;28;20128;-77
2023/12/25 06:31:40;;;;;;;16.73;2.97;;;;;;;;;;4974702;28;20038;-80
2023/12/25 06:34:06;;;;;;;16.48;2.67;;;;;;;;;;4994226;28;20104;-80
2023/12/25 06:36:32;;;;;;;14.20;2.20;;;;;;;;;;4993379;28;20504;-80
2023/12/25 06:39:01;;;;;;;12.38;3.00;;;;;;;;;;4992068;28;20523;-79
2023/12/25 06:41:27;;;;;;;20.00;3.72;;;;;;;;;;4992111;28;20513;-79
2023/12/25 06:43:53;;;;;;;16.25;2.63;;;;;;;;;;4980055;28;20060;-79
2023/12/25 06:46:19;;;;;;;18.92;2.65;;;;;;;;;;4972251;28;20121;-79
2023/12/25 06:48:45;;;;;;;17.38;2.60;;;;;;;;;;4976076;28;20100;-79
2023/12/25 06:51:11;;;;;;;15.13;2.65;;;;;;;;;;4992012;28;20045;-79
2023/12/25 06:53:37;;;;;;;14.30;2.50;;;;;;;;;;4992368;28;20162;-80
2023/12/25 06:56:04;;;;;;;19.67;3.13;;;;;;;;;;4993188;28;20046;-83
2023/12/25 06:58:30;;;;;;;18.58;2.83;;;;;;;;;;4988047;28;20521;-84
2023/12/25 07:00:56;;;;;;;12.15;1.88;;;;;;;;;;4992848;28;20077;-82
2023/12/25 07:03:22;;;;;;;11.05;2.10;;;;;;;;;;4969646;28;20041;-83
2023/12/25 07:05:48;;;;;;;12.15;2.08;;;;;;;;;;4991327;28;20038;-84
2023/12/25 07:08:14;;;;;;;20.10;2.40;;;;;;;;;;4972365;28;20080;-81
2023/12/25 07:10:41;;;;;;;19.90;3.05;;;;;;;;;;4975153;28;20042;-83
2023/12/25 07:13:07;;;;;;;15.40;3.15;;;;;;;;;;4961202;28;20052;-83
2023/12/25 07:15:34;;;;;;;19.15;2.70;;;;;;;;;;4975429;28;20088;-82
2023/12/25 07:18:00;;;;;;;22.40;2.75;;;;;;;;;;4975908;28;20114;-83
2023/12/25 07:20:26;;;;;;;14.65;2.20;;;;;;;;;;5006196;28;20045;-83
2023/12/25 07:22:52;;;;;;;18.80;2.17;;;;;;;;;;4988113;28;20042;-84
2023/12/25 07:25:18;;;;;;;13.75;2.92;;;;;;;;;;4987508;28;20065;-84
2023/12/25 07:27:44;;;;;;;8.75;1.77;;;;;;;;;;4969932;28;20485;-83
2023/12/25 07:30:11;;;;;;;11.48;1.85;;;;;;;;;;4990860;28;20203;-84
2023/12/25 07:32:37;;;;;;;8.48;1.35;;;;;;;;;;4991992;28;20068;-84
2023/12/25 07:35:03;;;;;;;8.48;1.38;;;;;;;;;;4990296;28;20523;-82
2023/12/25 07:37:29;;;;;;;4.25;1.30;;;;;;;;;;4973230;28;20057;-83
2023/12/25 07:39:55;;;;;;;2.55;0.73;;;;;;;;;;4989275;28;20048;-83
2023/12/25 07:42:21;;;;;;;6.35;1.25;;;;;;;;;;4990399;28;20619;-83
2023/12/25 07:44:47;;;;;;;9.82;1.00;;;;;;;;;;4988285;28;20065;-83
2023/12/25 07:47:13;;;;;;;6.68;1.40;;;;;;;;;;4973665;28;20042;-83
2023/12/25 07:49:39;;;;;;;5.93;1.00;;;;;;;;;;4971966;28;20081;-84
2023/12/25 07:52:06;;;;;;;9.93;2.05;;;;;;;;;;4988707;28;20046;-84
2023/12/25 07:54:32;;;;;;;11.07;1.63;;;;;;;;;;4968031;28;20564;-83
2023/12/25 07:56:58;;;;;;;8.73;1.10;;;;;;;;;;4975326;28;20049;-84
2023/12/25 07:59:25;;;;;;;8.00;1.25;;;;;;;;;;4988872;28;20049;-84
2023/12/25 08:01:52;;;;;;;4.88;0.95;;;;;;;;;;4975503;28;20050;-84
2023/12/25 08:04:18;;;;;;;10.98;1.40;;;;;;;;;;4972780;28;20057;-83
2023/12/25 08:06:44;;;;;;;10.63;1.20;;;;;;;;;;4976736;28;20046;-83
2023/12/25 08:09:10;;;;;;;5.13;1.67;;;;;;;;;;4984521;28;20084;-84
2023/12/25 08:11:36;;;;;;;8.50;1.50;;;;;;;;;;4990712;28;20136;-84
2023/12/25 08:14:02;;;;;;;6.95;1.35;;;;;;;;;;4957193;28;20547;-83
2023/12/25 08:16:28;;;;;;;8.55;1.08;;;;;;;;;;4986322;28;20135;-83
2023/12/25 08:18:55;;;;;;;11.95;1.27;;;;;;;;;;4971185;28;20046;-83
2023/12/25 08:21:22;;;;;;;10.18;1.35;;;;;;;;;;4954922;28;20053;-84
2023/12/25 08:23:48;;;;;;;7.53;1.85;;;;;;;;;;4983039;28;20145;-83
2023/12/25 08:26:14;;;;;;;10.40;2.00;;;;;;;;;;4988285;28;21027;-82
2023/12/25 08:28:41;;;;;;;11.85;1.92;;;;;;;;;;4986295;28;20046;-83
2023/12/25 08:31:07;;;;;;;17.05;2.22;;;;;;;;;;4955860;28;20042;-84
2023/12/25 08:33:35;;;;;;;12.27;2.30;;;;;;;;;;4991056;28;20535;-84
2023/12/25 08:36:01;;;;;;;14.68;2.30;;;;;;;;;;4982208;28;20058;-83
2023/12/25 08:38:27;;;;;;;10.30;2.22;;;;;;;;;;4953010;28;20407;-84
2023/12/25 08:40:53;;;;;;;19.38;3.50;;;;;;;;;;4965355;28;20038;-83
2023/12/25 08:43:19;;;;;;;20.83;1.95;;;;;;;;;;4985587;28;20030;-83
2023/12/25 08:45:45;;;;;;;14.25;2.78;;;;;;;;;;4968964;28;20039;-85
2023/12/25 08:48:11;;;;;;;17.75;2.90;;;;;;;;;;4984379;28;20045;-86
2023/12/25 08:50:37;;;;;;;15.95;2.83;;;;;;;;;;4969716;28;20038;-83
2023/12/25 08:53:04;;;;;;;11.90;2.17;;;;;;;;;;4969195;28;20034;-84
2023/12/25 08:55:30;;;;;;;16.02;3.35;;;;;;;;;;4970451;28;20464;-84
2023/12/25 08:57:56;;;;;;;17.55;2.65;;;;;;;;;;4984670;28;20125;-84
2023/12/25 09:00:22;;;;;;;16.30;2.53;;;;;;;;;;4971835;28;20037;-85
2023/12/25 09:02:48;;;;;;;16.13;2.45;;;;;;;;;;4972964;28;20046;-84
2023/12/25 09:05:14;;;;;;;17.85;2.92;;;;;;;;;;4983521;28;20492;-84
2023/12/25 09:07:40;;;;;;;24.35;3.42;;;;;;;;;;4972553;28;20041;-84
2023/12/25 09:10:07;;;;;;;11.48;2.30;;;;;;;;;;4984509;28;20388;-83
2023/12/25 09:12:33;;;;;;;17.88;2.40;;;;;;;;;;4969684;28;20030;-84
2023/12/25 09:14:59;;;;;;;13.75;2.50;;;;;;;;;;4956251;28;20041;-83
2023/12/25 09:17:25;;;;;;;16.35;3.00;;;;;;;;;;4972938;28;20493;-83
2023/12/25 09:19:51;;;;;;;16.23;3.65;;;;;;;;;;4971738;28;20045;-83
2023/12/25 09:22:20;;;;;;;16.88;2.20;;;;;;;;;;4985647;28;20068;-83
2023/12/25 09:24:46;;;;;;;16.60;2.67;;;;;;;;;;4968838;28;20088;-82
2023/12/25 09:27:12;;;;;;;16.35;2.25;;;;;;;;;;4987454;28;20447;-83
2023/12/25 09:29:38;;;;;;;15.55;2.67;;;;;;;;;;4957355;28;20040;-82
2023/12/25 09:32:04;;;;;;;12.40;2.30;;;;;;;;;;4971292;28;20679;-83
2023/12/25 09:34:31;;;;;;;13.65;2.10;;;;;;;;;;4968097;28;20081;-84
2023/12/25 09:36:58;;;;;;;14.75;3.40;;;;;;;;;;4986357;28;20060;-83
2023/12/25 09:39:24;;;;;;;17.40;3.00;;;;;;;;;;4987867;28;20052;-83
2023/12/25 09:41:50;;;;;;;13.38;1.83;;;;;;;;;;4987150;28;20104;-83
2023/12/25 09:44:16;;;;;;;14.82;2.30;;;;;;;;;;4990408;28;20222;-83
2023/12/25 09:46:43;;;;;;;12.25;1.67;;;;;;;;;;4988784;28;20097;-83
2023/12/25 09:49:10;;;;;;;12.70;2.25;;;;;;;;;;4985180;28;20076;-83
2023/12/25 09:51:36;;;;;;;11.40;1.77;;;;;;;;;;4957833;28;20060;-83
2023/12/25 09:54:04;;;;;;;13.07;2.42;;;;;;;;;;4969926;28;20073;-84
2023/12/25 09:56:34;;;;;;;14.15;1.98;;;;;;;;;;4971285;28;20044;-83
2023/12/25 09:59:00;;;;;;;10.95;2.50;;;;;;;;;;4984495;28;20412;-82
2023/12/25 10:01:27;;;;;;;18.33;2.35;;;;;;;;;;4986113;28;20042;-82
2023/12/25 10:03:54;;;;;;;14.13;2.47;;;;;;;;;;4957501;28;20113;-82
2023/12/25 10:06:20;;;;;;;13.68;2.22;;;;;;;;;;4983790;28;20034;-84
2023/12/25 10:08:47;;;;;;;13.38;1.65;;;;;;;;;;4975295;28;20552;-83
2023/12/25 10:11:13;;;;;;;12.70;2.00;;;;;;;;;;4992297;28;20050;-84
2023/12/25 10:13:44;;;;;;;21.25;2.42;;;;;;;;;;4987190;28;20053;-84
2023/12/25 10:16:10;;;;;;;18.15;2.28;;;;;;;;;;4972935;28;20043;-83
2023/12/25 10:18:39;;;;;;;15.07;1.80;;;;;;;;;;4992080;28;20063;-84
2023/12/25 10:21:06;;;;;;;12.25;4.03;;;;;;;;;;4974191;28;21600;-84
2023/12/25 10:23:32;;;;;;;13.23;3.10;;;;;;;;;;4990873;28;20477;-85
2023/12/25 10:25:59;;;;;;;13.43;2.35;;;;;;;;;;4994188;28;20046;-83
2023/12/25 10:28:26;;;;;;;13.40;2.85;;;;;;;;;;4992179;28;20037;-83
2023/12/25 10:31:02;;;;;;;22.00;2.90;;;;;;;;;;4975271;28;20074;-84
2023/12/25 10:33:29;;;;;;;15.38;2.35;;;;;;;;;;4973120;28;20062;-83
2023/12/25 10:36:03;;;;;;;24.27;4.05;;;;;;;;;;4992117;28;20051;-84
2023/12/25 10:38:29;;;;;;;;;;;;;;;;;;4979527;28;20077;-83
2023/12/25 10:40:55;;;;;;;11.90;2.50;;;;;;;;;;4991192;28;19956;-83
2023/12/25 10:43:21;;;;;;;15.80;2.38;;;;;;;;;;4975686;28;20056;-85
2023/12/25 10:45:50;;;;;;;14.77;2.95;;;;;;;;;;4974498;28;20042;-84
2023/12/25 10:48:19;;;;;;;14.73;2.45;;;;;;;;;;4987091;28;20045;-84
2023/12/25 10:50:46;;;;;;;13.38;2.95;;;;;;;;;;4975910;28;20042;-83
2023/12/25 10:53:16;;;;;;;18.17;2.92;;;;;;;;;;4990885;28;20069;-81
2023/12/25 10:55:44;;;;;;;15.10;2.25;;;;;;;;;;4974484;28;20046;-84
2023/12/25 10:58:13;;;;;;;14.05;1.83;;;;;;;;;;4989487;28;20038;-83
2023/12/25 11:00:51;;;;;;;13.80;3.13;;;;;;;;;;4990710;28;20038;-83
2023/12/25 11:03:17;;;;;;;13.90;2.10;;;;;;;;;;4977028;28;20128;-83
2023/12/25 11:05:46;;;;;;;15.55;2.47;;;;;;;;;;4990671;28;20053;-84
2023/12/25 11:08:20;;;;;;;16.35;4.03;;;;;;;;;;4986781;28;20129;-82
2023/12/25 11:10:46;;;;;;;18.05;2.38;;;;;;;;;;4974161;28;20129;-83
2023/12/25 11:13:13;;;;;;;12.63;2.55;;;;;;;;;;4988975;28;20041;-82
2023/12/25 11:15:39;;;;;;;13.57;2.45;;;;;;;;;;4993741;28;20041;-82
2023/12/25 11:18:07;;;;;;;12.70;2.35;;;;;;;;;;4994728;28;20103;-81
2023/12/25 11:20:33;;;;;;;25.17;2.83;;;;;;;;;;4971584;28;20124;-83
2023/12/25 11:23:02;;;;;;;13.55;2.85;;;;;;;;;;4973355;28;20046;-82
2023/12/25 11:25:33;;;;;;;13.85;2.03;;;;;;;;;;4993008;28;20115;-82
2023/12/25 11:27:59;;;;;;;14.85;2.33;;;;;;;;;;4991220;28;20057;-83
2023/12/25 11:30:26;;;;;;;15.38;2.30;;;;;;;;;;4971122;28;20096;-83
2023/12/25 11:32:52;;;;;;;19.38;2.75;;;;;;;;;;4985404;28;20077;-82
2023/12/25 11:35:28;;;;;;;15.45;2.83;;;;;;;;;;4984678;28;20058;-82
2023/12/25 11:38:19;;;;;;;12.02;2.25;;;10.00;99.90;;;;;;4987137;28;20772;-81
2023/12/25 11:40:52;;;;;;;20.65;2.88;;;;;;;;;;4983962;28;20045;-82
2023/12/25 11:43:18;;;;;;;17.05;2.50;;;;;;;;;;4986840;28;20054;-80
2023/12/25 11:45:45;;;;;;;19.15;2.88;;;;;;;;;;4989800;28;20465;-81
2023/12/25 11:48:11;;;;;;;25.83;3.13;;;;;;;;;;4987937;28;20042;-82
2023/12/25 11:50:38;;;;;;;13.55;2.60;;;;;;;;;;4989076;28;20077;-79
2023/12/25 11:53:04;;;;;;;14.75;2.72;;;;;;;;;;4974784;28;20493;-81
2023/12/25 11:55:30;;;;;;;15.05;2.35;;;;;;;;;;4970667;28;20041;-80
2023/12/25 11:57:58;;;;;;;17.55;1.95;;;;;;;;;;4972597;28;20130;-80
2023/12/25 12:00:26;;;;;;;17.02;3.10;;;;;;;;;;4971020;28;20065;-80
2023/12/25 12:02:52;;;;;;;10.52;2.40;;;;;;;;;;4987782;28;20037;-80
2023/12/25 12:05:19;;;;;;;21.52;3.72;;;;;;;;;;4972847;28;20065;-79
2023/12/25 12:07:45;;;;;;;14.90;2.25;;;;;;;;;;4953272;28;20041;-80
2023/12/25 12:10:12;;;;;;;17.17;2.78;;;;;;;;;;4989180;28;20171;-80
2023/12/25 12:12:38;;;;;;;14.77;2.60;;;;;;;;;;4971687;28;20034;-80
2023/12/25 12:15:05;;;;;;;17.23;3.13;;;;;;;;;;4988735;28;20076;-82
2023/12/25 12:17:32;;;;;;;19.88;2.65;;;;;;;;;;4967668;28;20045;-84
2023/12/25 12:19:58;;;;;;;18.10;2.60;;;;;;;;;;4950319;28;20042;-84
2023/12/25 12:22:26;;;;;;;14.10;2.00;;;;;;;;;;4982087;28;20073;-85
2023/12/25 12:24:52;;;;;;;16.25;2.03;;;;;;;;;;4986197;28;20052;-84
2023/12/25 12:27:21;;;;;;;15.65;1.98;;;;;;;;;;4959939;28;20029;-80
2023/12/25 12:29:48;;;;;;;11.98;2.08;;;;;;;;;;4962111;28;20038;-82
2023/12/25 12:32:15;;;;;;;15.15;2.10;;;;;;;;;;4990677;28;20068;-81
2023/12/25 12:34:41;;;;;;;16.63;2.65;;;;;;;;;;4975025;28;20049;-81
2023/12/25 12:37:09;;;;;;;13.57;2.05;;;;;;;;;;4992972;28;20072;-81
2023/12/25 12:39:35;;;;;;;10.40;1.90;;;;;;;;;;4975645;28;20070;-80
2023/12/25 12:42:01;;;;;;;9.02;1.67;;;;;;;;;;4988754;28;20108;-82
2023/12/25 12:44:27;;;;;;;16.95;2.30;;;;;;;;;;4986700;28;20061;-82
2023/12/25 12:46:55;;;;;;;20.80;2.45;;;;;;;;;;4972000;28;20081;-85
2023/12/25 12:49:21;;;;;;;9.13;2.00;;;;;;;;;;4972550;28;20050;-83
2023/12/25 12:51:47;;;;;;;11.48;2.20;;;;;;;;;;4957049;28;20049;-81
2023/12/25 12:54:14;;;;;;;9.23;1.77;;;;;;;;;;4957836;28;20079;-83
2023/12/25 12:56:40;;;;;;;10.45;2.63;;;;;;;;;;4991233;28;20041;-82
2023/12/25 12:59:06;;;;;;;14.77;1.65;;;;;;;;;;4972710;28;20042;-85
2023/12/25 13:01:32;;;;;;;11.18;2.17;;;;;;;;;;4970351;28;20042;-83
2023/12/25 13:03:58;;;;;;;11.88;1.60;;;;;;;;;;4972519;28;20504;-80
2023/12/25 13:06:25;;;;;;;12.68;2.22;;;;;;;;;;4971317;28;20058;-82
2023/12/25 13:08:53;;;;;;;9.77;1.88;;;;;;;;;;4956769;28;20053;-83
2023/12/25 13:11:24;;;;;;;13.98;1.90;;;;;;;;;;4971726;28;20466;-85
2023/12/25 13:13:50;;;;;;;13.45;2.60;;;;;;;;;;4985296;28;20051;-82
2023/12/25 13:16:18;;;;;;;15.43;2.03;;;;;;;;;;4970620;28;20092;-83
2023/12/25 13:18:46;;;;;;;11.90;2.05;;;;;;;;;;4969259;28;20445;-83
2023/12/25 13:21:12;;;;;;;16.08;2.08;;;;;;;;;;4970934;28;20037;-84
2023/12/25 13:23:38;;;;;;;11.98;1.90;;;;;;;;;;4973233;28;20449;-83
2023/12/25 13:26:05;;;;;;;6.82;2.13;;;;;;;;;;4982410;28;20605;-82
2023/12/25 13:28:33;;;;;;;14.38;1.88;;;;;;;;;;4983232;28;20146;-84
2023/12/25 13:30:59;;;;;;;7.07;1.67;;;;;;;;;;4971325;28;20069;-84
2023/12/25 13:33:25;;;;;;;10.27;1.92;;;;;;;;;;4969751;28;20056;-84
2023/12/25 13:35:51;;;;;;;11.38;1.77;;;;;;;;;;4972447;28;20099;-84
2023/12/25 13:38:17;;;;;;;8.23;2.50;;;;;;;;;;4970454;28;20036;-83
2023/12/25 13:40:43;;;;;;;9.00;1.80;;;;;;;;;;4975286;28;20058;-83
2023/12/25 13:43:11;;;;;;;5.93;1.20;;;;;;;;;;4985452;28;20049;-84
2023/12/25 13:45:37;;;;;;;8.25;1.40;;;;;;;;;;4987799;28;20413;-82
2023/12/25 13:48:03;;;;;;;8.73;1.70;;;;;;;;;;4974187;28;20061;-85
2023/12/25 13:50:29;;;;;;;13.98;1.67;;;;;;;;;;4988468;28;20030;-85
2023/12/25 13:52:55;;;;;;;8.38;1.83;;;;;;;;;;4989318;28;20046;-85
2023/12/25 13:55:21;;;;;;;10.18;1.60;;;;;;;;;;4986609;28;21617;-86
2023/12/25 13:57:47;;;;;;;8.20;1.55;;;;;;;;;;4969821;28;20041;-84
2023/12/25 14:00:14;;;;;;;10.68;1.55;;;;;;;;;;4986752;28;20125;-83
2023/12/25 14:02:40;;;;;;;6.15;1.63;;;;;;;;;;4990273;28;20050;-84
2023/12/25 14:05:07;;;;;;;18.35;2.20;;;;;;;;;;4972116;28;20493;-84
2023/12/25 14:07:33;;;;;;;11.98;2.72;;;;;;;;;;4958545;28;20069;-84
2023/12/25 14:09:59;;;;;;;10.20;1.63;;;;;;;;;;4987036;28;20397;-83
2023/12/25 14:12:25;;;;;;;9.18;1.90;;;;;;;;;;4969632;28;20046;-84
2023/12/25 14:14:51;;;;;;;12.60;2.13;;;;;;;;;;4987282;28;20382;-83
2023/12/25 14:17:17;;;;;;;8.30;1.70;;;;;;;;;;4973544;28;20057;-83
2023/12/25 14:19:43;;;;;;;9.45;1.75;;;;;;;;;;4967733;28;20098;-84
2023/12/25 14:22:10;;;;;;;7.82;1.73;;;;;;;;;;4973794;28;20038;-81
2023/12/25 14:24:38;;;;;;;14.85;3.42;;;;;;;;;;4968422;28;20103;-82
2023/12/25 14:27:05;;;;;;;10.25;2.28;;;;;;;;;;4971768;28;20491;-82